ADDS METAR Data INFO
IDs: Format: Raw Decoded Include TAF

Data at: 2257 UTC 22 Jun 2018

KIPJ 222240Z AUTO 22010G18KT 10SM CLR 31/15 A2977 RMK AO2 T03100153
KIPJ 222220Z AUTO 23013G20KT 10SM CLR 31/16 A2978 RMK AO2 T03050159
KIPJ 222200Z AUTO 23009KT 10SM SCT065 31/16 A2978 RMK AO2 T03100155
KIPJ 222140Z AUTO 22009G17KT 10SM CLR 31/16 A2978 RMK AO2 T03110156
KIPJ 222120Z AUTO 22009G15KT 10SM CLR 31/16 A2978 RMK AO2 T03100160
KIPJ 222100Z AUTO 22010G18KT 10SM CLR 31/16 A2978 RMK AO2 T03070159
KIPJ 222040Z AUTO 22012G18KT 10SM CLR 31/16 A2978 RMK AO2 T03060159
KIPJ 222020Z AUTO 22008G14KT 180V240 10SM SCT050 31/17 A2978 RMK AO2 T03100174
KIPJ 222000Z AUTO 23012G16KT 10SM SCT050 31/18 A2979 RMK AO2 T03050175
KIPJ 221940Z AUTO 24012G15KT 10SM SCT048 SCT055 31/17 A2979 RMK AO2 T03100173
KIPJ 221920Z AUTO 20008G15KT 10SM SCT046 SCT055 30/18 A2981 RMK AO2 T03040180
KIPJ 221900Z AUTO 21006KT 10SM SCT049 SCT055 30/18 A2981 RMK AO2 T03000178
KIPJ 221840Z AUTO 22011G16KT 190V250 10SM SCT047 BKN055 31/17 A2982 RMK AO2 T03050169
KIPJ 221820Z AUTO 20007KT 10SM SCT043 SCT049 31/19 A2983 RMK AO2 T03070189
KIPJ 221800Z AUTO 20008KT 10SM SCT041 SCT046 30/20 A2983 RMK AO2 T03000197
KIPJ 221740Z AUTO 17007KT 140V220 10SM SCT037 SCT045 30/19 A2983 RMK AO2 T02960194
KIPJ 221720Z AUTO 17004KT 10SM SCT037 SCT043 SCT050 29/20 A2984 RMK AO2 T02920200
KIPJ 221700Z AUTO 22006KT 10SM SCT036 BKN042 BKN048 30/19 A2985 RMK AO2 T02950192
KIPJ 221640Z AUTO 22007KT 10SM BKN036 BKN044 BKN050 30/20 A2985 RMK AO2 T02950200
KIPJ 221620Z AUTO 18004KT 10SM BKN032 BKN040 29/20 A2985 RMK AO2 T02890200
KIPJ 221600Z AUTO 00000KT 10SM SCT028 SCT034 BKN040 29/21 A2985 RMK AO2 T02850209
KIPJ 221540Z AUTO 00000KT 10SM SCT025 SCT031 SCT039 28/20 A2985 RMK AO2 T02750203
KIPJ 221520Z AUTO 00000KT 10SM SCT019 SCT025 28/21 A2985 RMK AO2 T02750210
KIPJ 221500Z AUTO 00000KT 10SM SCT013 27/21 A2985 RMK AO2 T02690212
KIPJ 221440Z AUTO 00000KT 10SM BKN011 26/21 A2985 RMK AO2 T02560214
KIPJ 221420Z AUTO 00000KT 10SM BKN009 OVC013 25/22 A2985 RMK AO2 T02470216
KIPJ 221400Z AUTO 00000KT 10SM OVC005 24/22 A2986 RMK AO2 T02360218
KIPJ 221340Z AUTO 18003KT 7SM OVC003 22/22 A2986 RMK AO2 T02200220
KIPJ 221320Z AUTO 00000KT 3SM BR OVC003 22/22 A2986 RMK AO2 T02190219
KIPJ 221300Z AUTO 00000KT 4SM BR OVC003 22/22 A2985 RMK AO2 T02200220
KIPJ 221240Z AUTO 25003KT 1SM BR OVC003 22/22 A2986 RMK AO2 T02170217
KIPJ 221220Z AUTO 24003KT 1/2SM FG OVC003 22/22 A2986 RMK AO2 T02160216
KIPJ 221200Z AUTO 24006KT M1/4SM FG OVC003 22/22 A2985 RMK AO2 T02150215
KIPJ 221140Z AUTO 00000KT 1/4SM FG OVC003 22/22 A2984 RMK AO2 T02150215
KIPJ 221120Z AUTO 00000KT M1/4SM FG OVC003 21/21 A2984 RMK AO2 T02140214
KIPJ 221100Z AUTO 00000KT 3/4SM BR OVC003 21/21 A2983 RMK AO2 T02070207
KIPJ 221040Z AUTO 00000KT 2SM BR OVC003 21/21 A2983 RMK AO2 T02050205
KIPJ 221020Z AUTO 00000KT 4SM BR OVC003 20/20 A2983 RMK AO2 T02040204
KIPJ 221000Z AUTO 00000KT 7SM OVC003 20/20 A2982 RMK AO2 T02030203
KIPJ 220940Z AUTO 00000KT 3SM BR SCT003 20/20 A2981 RMK AO2 T01990199
KIPJ 220920Z AUTO 00000KT 5SM BR CLR 21/21 A2981 RMK AO2 T02070207
KIPJ 220900Z AUTO 00000KT 5SM BR CLR 21/21 A2980 RMK AO2 T02050205
KIPJ 220840Z AUTO 00000KT 7SM CLR 21/21 A2980 RMK AO2 T02050205
KIPJ 220820Z AUTO 00000KT 7SM CLR 21/21 A2979 RMK AO2 T02110211
KIPJ 220800Z AUTO 00000KT 5SM BR CLR 21/21 A2979 RMK AO2 T02080208
KIPJ 220740Z AUTO 00000KT 10SM CLR 21/21 A2979 RMK AO2 T02110211
KIPJ 220720Z AUTO 00000KT 7SM CLR 21/21 A2980 RMK AO2 T02090208
KIPJ 220700Z AUTO 00000KT 7SM SCT120 21/21 A2980 RMK AO2 T02130210
KIPJ 220640Z AUTO 00000KT 10SM SCT120 22/21 A2980 RMK AO2 T02160214
KIPJ 220620Z AUTO 00000KT 7SM BKN120 22/21 A2981 RMK AO2 T02160211
KIPJ 220600Z AUTO 00000KT 10SM CLR 22/21 A2981 RMK AO2 T02200208
KIPJ 220540Z AUTO 23003KT 10SM CLR 23/21 A2982 RMK AO2 T02260210
KIPJ 220520Z AUTO 23006KT 10SM CLR 23/21 A2983 RMK AO2 T02290210
KIPJ 220500Z AUTO 23003KT 10SM CLR 23/21 A2983 RMK AO2 T02280210
KIPJ 220440Z AUTO 00000KT 10SM SCT110 23/21 A2984 RMK AO2 T02310210
KIPJ 220420Z AUTO 22003KT 10SM CLR 23/21 A2984 RMK AO2 T02320210
KIPJ 220400Z AUTO 00000KT 10SM SCT110 24/21 A2984 RMK AO2 T02360208
KIPJ 220340Z AUTO 23003KT 10SM SCT110 24/21 A2984 RMK AO2 T02390207
KIPJ 220320Z AUTO 22004KT 10SM SCT110 24/21 A2984 RMK AO2 T02410205
KIPJ 220300Z AUTO 22004KT 10SM CLR 25/20 A2984 RMK AO2 T02450202
KIPJ 220240Z AUTO 23005KT 10SM CLR 25/20 A2984 RMK AO2 T02470202
KIPJ 220220Z AUTO 23009KT 10SM CLR 25/20 A2983 RMK AO2 T02500201
KIPJ 220200Z AUTO 25009G16KT 10SM CLR 25/20 A2983 RMK AO2 T02530202
KIPJ 220140Z AUTO 22009KT 10SM CLR 25/20 A2982 RMK AO2 T02530202
KIPJ 220120Z AUTO 22007KT 10SM SCT050 SCT060 25/21 A2981 RMK AO2 T02520205
KIPJ 220100Z AUTO 21007G14KT 10SM SCT040 SCT046 SCT050 27/20 A2981 RMK AO2 T02660202
KIPJ 220040Z AUTO 21004KT 10SM SCT042 SCT050 BKN075 27/21 A2981 RMK AO2 T02690211
KIPJ 220020Z AUTO 21005KT 10SM SCT050 SCT060 SCT100 27/21 A2981 RMK AO2 T02720212
KIPJ 220000Z AUTO 21003KT 10SM CLR 28/21 A2979 RMK AO2 T02760212
KIPJ 212340Z AUTO 22003KT 10SM CLR 29/21 A2979 RMK AO2 T02850209
KIPJ 212320Z AUTO 21003KT 10SM CLR 28/21 A2979 RMK AO2 T02830207
KIPJ 212300Z AUTO 21004KT 10SM CLR 29/21 A2978 RMK AO2 T02900206
KIPJ 212240Z AUTO 21004KT 10SM SCT050 SCT055 SCT070 30/20 A2978 RMK AO2 T03010197
KIPJ 212220Z AUTO 00000KT 10SM SCT055 SCT070 BKN080 28/22 A2979 RMK AO2 T02820217
KIPJ 212200Z AUTO 00000KT 10SM SCT060 SCT070 SCT090 30/20 A2978 RMK AO2 T02950201
KIPJ 212140Z AUTO 00000KT 10SM SCT080 SCT095 30/20 A2979 RMK AO2 T02970198
KIPJ 212120Z AUTO 26004KT 10SM SCT080 30/19 A2979 RMK AO2 T02980192
KIPJ 212100Z AUTO 20004KT 10SM CLR 30/19 A2980 RMK AO2 T03020194
KIPJ 212040Z AUTO 19003KT 10SM CLR 30/20 A2981 RMK AO2 T03010198
KIPJ 212020Z AUTO 21003KT 10SM CLR 31/19 A2982 RMK AO2 T03090191
KIPJ 212000Z AUTO 00000KT 10SM CLR 30/19 A2983 RMK AO2 T03030186
KIPJ 211940Z AUTO 29003KT 10SM CLR 30/18 A2983 RMK AO2 T03000179
KIPJ 211920Z AUTO 31003KT 10SM CLR 30/18 A2984 RMK AO2 T03020179
KIPJ 211900Z AUTO 00000KT 10SM CLR 30/17 A2985 RMK AO2 T03000169
KIPJ 211840Z AUTO 32003KT 10SM CLR 30/18 A2986 RMK AO2 T03010182
KIPJ 211820Z AUTO 27004KT 10SM CLR 30/19 A2986 RMK AO2 T02960186
KIPJ 211800Z AUTO 31004KT 10SM CLR 29/19 A2987 RMK AO2 T02930192
KIPJ 211740Z AUTO 26005KT 10SM CLR 29/19 A2987 RMK AO2 T02860189
KIPJ 211720Z AUTO 00000KT 10SM CLR 28/19 A2988 RMK AO2 T02800188
KIPJ 211700Z AUTO 00000KT 10SM CLR 29/19 A2988 RMK AO2 T02850187
KIPJ 211640Z AUTO 29004KT 10SM CLR 29/19 A2988 RMK AO2 T02860187
KIPJ 211620Z AUTO 28003KT 10SM CLR 29/20 A2989 RMK AO2 T02850196
KIPJ 211600Z AUTO 00000KT 10SM CLR 28/21 A2989 RMK AO2 T02810207
KIPJ 211540Z AUTO 00000KT 10SM CLR 28/19 A2989 RMK AO2 T02820194
KIPJ 211520Z AUTO 00000KT 10SM CLR 29/19 A2988 RMK AO2 T02890190
KIPJ 211500Z AUTO 32004KT 10SM SCT055 29/19 A2988 RMK AO2 T02860188
KIPJ 211420Z AUTO 27003KT 10SM CLR 28/19 A2988 RMK AO2 T02760191
KIPJ 211400Z AUTO 00000KT 10SM CLR 28/19 A2988 RMK AO2 T02760193
KIPJ 211340Z AUTO 00000KT 10SM CLR 27/20 A2988 RMK AO2 T02710200
KIPJ 211320Z AUTO 00000KT 10SM CLR 26/20 A2988 RMK AO2 T02620203
KIPJ 211300Z AUTO 00000KT 10SM CLR 25/22 A2988 RMK AO2 T02510220
KIPJ 211240Z AUTO 00000KT 10SM CLR 23/22 A2987 RMK AO2 T02320219
KIPJ 211220Z AUTO 00000KT 10SM CLR 23/22 A2987 RMK AO2 T02260219
KIPJ 211200Z AUTO 00000KT 10SM CLR 22/22 A2986 RMK AO2 T02220217
KIPJ 211140Z AUTO 00000KT 10SM CLR 22/22 A2986 RMK AO2 T02150215
KIPJ 211120Z AUTO 00000KT 7SM CLR 21/21 A2986 RMK AO2 T02110211
KIPJ 211100Z AUTO 00000KT 7SM CLR 21/21 A2985 RMK AO2 T02130213